Time;durP1;ratioP1;P1;durP2;ratioP2;P2;SDS_P1;SDS_P2;PMS_P1;PMS_P2;Temp;Humidity;BMP_temperature;BMP_pressure;BME280_temperature;BME280_humidity;BME280_pressure;Samples;Min_cycle;Max_cycle;Signal;HPM_P1;HPM_P2
2022/03/15 00:00:15;;;;;;;25.23;15.13;;;8.20;51.00;;;;;;5113951;28;20052;-74
2022/03/15 00:02:41;;;;;;;26.27;15.60;;;8.10;51.30;;;;;;5114363;28;20031;-74
2022/03/15 00:05:07;;;;;;;24.25;15.48;;;8.10;51.30;;;;;;5114990;28;20164;-74
2022/03/15 00:07:33;;;;;;;27.50;15.15;;;8.10;51.40;;;;;;5114652;28;20470;-73
2022/03/15 00:10:00;;;;;;;25.63;15.57;;;8.10;51.50;;;;;;5114683;28;20027;-73
2022/03/15 00:12:29;;;;;;;30.85;16.80;;;8.00;51.60;;;;;;5114127;28;20032;-74
2022/03/15 00:14:55;;;;;;;32.95;16.95;;;8.00;51.80;;;;;;5114653;28;20019;-73
2022/03/15 00:17:22;;;;;;;28.90;16.52;;;8.00;51.70;;;;;;5113853;28;20590;-74
2022/03/15 00:19:47;;;;;;;24.73;15.82;;;7.90;51.80;;;;;;5114296;28;20092;-73
2022/03/15 00:22:14;;;;;;;23.67;15.13;;;7.90;52.20;;;;;;5114568;28;20032;-73
2022/03/15 00:24:41;;;;;;;25.13;15.63;;;7.90;52.30;;;;;;5114346;28;20027;-74
2022/03/15 00:27:07;;;;;;;25.20;15.25;;;7.80;52.30;;;;;;5114972;28;20111;-73
2022/03/15 00:29:35;;;;;;;27.17;15.18;;;7.80;52.20;;;;;;5114906;27;20081;-74
2022/03/15 00:32:00;;;;;;;23.60;15.00;;;7.80;52.20;;;;;;5130240;28;20023;-74
2022/03/15 00:34:26;;;;;;;31.38;15.70;;;7.80;52.20;;;;;;5127710;28;20023;-74
2022/03/15 00:36:52;;;;;;;27.08;16.10;;;7.80;52.50;;;;;;5120968;28;20027;-74
2022/03/15 00:39:17;;;;;;;26.52;16.00;;;7.80;52.70;;;;;;5120506;28;20035;-75
2022/03/15 00:41:43;;;;;;;31.27;16.20;;;7.70;52.80;;;;;;5121068;28;20028;-74
2022/03/15 00:44:09;;;;;;;24.45;15.30;;;7.70;53.10;;;;;;5116201;28;20055;-73
2022/03/15 00:46:35;;;;;;;22.98;15.50;;;7.70;53.10;;;;;;5114694;28;20459;-74
2022/03/15 00:49:02;;;;;;;26.25;15.93;;;7.80;53.10;;;;;;5114892;28;20023;-73
2022/03/15 00:51:29;;;;;;;25.08;14.75;;;7.70;53.10;;;;;;5114420;28;20026;-73
2022/03/15 00:53:54;;;;;;;27.60;16.50;;;7.70;53.40;;;;;;5114598;28;20372;-73
2022/03/15 00:56:20;;;;;;;28.38;16.42;;;7.70;53.60;;;;;;5114484;28;20039;-74
2022/03/15 00:58:46;;;;;;;23.75;15.82;;;7.70;53.50;;;;;;5114059;28;20088;-74
2022/03/15 01:01:12;;;;;;;30.92;16.08;;;7.60;53.40;;;;;;5114053;28;20071;-72
2022/03/15 01:03:37;;;;;;;30.75;15.68;;;7.50;53.70;;;;;;5113245;28;20028;-74
2022/03/15 01:06:03;;;;;;;24.35;14.95;;;7.50;54.50;;;;;;5113884;28;20468;-74
2022/03/15 01:08:28;;;;;;;33.05;16.38;;;7.50;54.00;;;;;;5113274;28;20030;-74
2022/03/15 01:10:54;;;;;;;28.17;16.77;;;7.50;54.00;;;;;;5113683;28;20259;-74
2022/03/15 01:13:20;;;;;;;23.83;13.95;;;7.50;54.20;;;;;;5113814;28;20085;-74
2022/03/15 01:15:46;;;;;;;23.48;14.38;;;7.40;54.10;;;;;;5112617;28;20118;-73
2022/03/15 01:18:12;;;;;;;26.13;13.95;;;7.40;54.60;;;;;;5113374;28;20063;-73
2022/03/15 01:20:41;;;;;;;20.35;13.82;;;7.40;55.00;;;;;;5112817;28;20034;-73
2022/03/15 01:23:07;;;;;;;23.50;13.93;;;7.40;55.00;;;;;;5113208;28;20019;-73
2022/03/15 01:25:33;;;;;;;22.38;14.02;;;7.40;55.10;;;;;;5112663;28;20424;-73
2022/03/15 01:27:59;;;;;;;29.73;13.75;;;7.40;55.20;;;;;;5113479;28;20024;-73
2022/03/15 01:30:25;;;;;;;20.70;13.05;;;7.30;55.10;;;;;;5112848;28;20123;-73
2022/03/15 01:32:50;;;;;;;25.83;14.25;;;7.30;55.60;;;;;;5113312;28;20027;-73
2022/03/15 01:35:16;;;;;;;22.42;13.75;;;7.30;55.60;;;;;;5113361;28;20031;-74
2022/03/15 01:37:42;;;;;;;20.63;14.05;;;7.30;55.70;;;;;;5111273;28;20081;-73
2022/03/15 01:40:09;;;;;;;22.05;13.27;;;7.20;55.80;;;;;;5113249;28;20019;-74
2022/03/15 01:42:35;;;;;;;23.95;13.82;;;7.20;55.90;;;;;;5111259;28;20060;-73
2022/03/15 01:45:03;;;;;;;24.15;14.27;;;7.10;56.00;;;;;;5113082;28;20024;-73
2022/03/15 01:47:28;;;;;;;24.63;13.88;;;7.00;55.90;;;;;;5112584;28;20050;-73
2022/03/15 01:49:54;;;;;;;25.60;14.73;;;7.00;56.10;;;;;;5113061;28;20465;-73
2022/03/15 01:52:20;;;;;;;24.30;13.90;;;7.00;56.00;;;;;;5112487;28;20031;-74
2022/03/15 01:54:46;;;;;;;24.77;15.00;;;7.00;56.20;;;;;;5112064;28;20393;-73
2022/03/15 01:57:13;;;;;;;24.80;15.43;;;7.00;55.80;;;;;;5112823;28;20157;-73
2022/03/15 01:59:39;;;;;;;25.30;14.82;;;6.90;55.60;;;;;;5112226;28;20385;-74
2022/03/15 02:02:05;;;;;;;26.52;15.88;;;6.80;56.00;;;;;;5112948;28;20020;-74
2022/03/15 02:04:36;;;;;;;22.88;15.73;;;6.80;56.20;;;;;;5112182;28;20023;-74
2022/03/15 02:07:07;;;;;;;26.25;16.70;;;6.80;56.40;;;;;;5112927;28;20391;-75
2022/03/15 02:09:33;;;;;;;29.38;14.77;;;6.80;56.20;;;;;;5112085;28;20376;-75
2022/03/15 02:11:59;;;;;;;31.67;15.73;;;6.80;56.20;;;;;;5112516;28;20073;-75
2022/03/15 02:14:25;;;;;;;25.45;15.10;;;6.70;56.70;;;;;;5112781;28;20448;-75
2022/03/15 02:16:52;;;;;;;24.77;15.38;;;6.70;56.90;;;;;;5112831;28;20059;-75
2022/03/15 02:19:17;;;;;;;24.40;15.18;;;6.60;56.70;;;;;;5111441;28;20516;-75
2022/03/15 02:21:43;;;;;;;27.63;16.40;;;6.60;57.10;;;;;;5112112;28;20027;-75
2022/03/15 02:24:09;;;;;;;28.40;16.38;;;6.60;57.60;;;;;;5111932;28;20024;-75
2022/03/15 02:26:34;;;;;;;33.45;15.85;;;6.50;57.50;;;;;;5112073;28;20031;-75
2022/03/15 02:29:00;;;;;;;27.00;16.30;;;6.50;57.70;;;;;;5112736;28;20353;-74
2022/03/15 02:31:25;;;;;;;30.65;17.70;;;6.50;57.70;;;;;;5112410;28;20028;-75
2022/03/15 02:33:51;;;;;;;30.67;17.40;;;6.50;58.10;;;;;;5110769;28;20337;-73
2022/03/15 02:36:17;;;;;;;33.10;17.77;;;6.50;58.00;;;;;;5112429;28;20058;-74
2022/03/15 02:38:44;;;;;;;28.58;16.15;;;6.50;58.10;;;;;;5112116;28;20028;-75
2022/03/15 02:41:10;;;;;;;30.85;17.27;;;6.50;58.10;;;;;;5112287;28;20112;-75
2022/03/15 02:43:37;;;;;;;24.70;15.20;;;6.50;57.90;;;;;;5110717;28;20051;-75
2022/03/15 02:46:02;;;;;;;22.08;14.93;;;6.50;58.10;;;;;;5111036;28;20034;-75
2022/03/15 02:48:28;;;;;;;25.20;15.38;;;6.50;57.90;;;;;;5112447;28;20028;-75
2022/03/15 02:50:58;;;;;;;27.75;15.65;;;6.50;58.10;;;;;;5112708;28;20024;-75
2022/03/15 02:53:23;;;;;;;23.10;14.05;;;6.50;57.90;;;;;;5112449;28;20043;-75
2022/03/15 02:55:51;;;;;;;20.65;14.07;;;6.50;57.90;;;;;;5111764;28;20052;-75
2022/03/15 02:58:18;;;;;;;22.95;14.13;;;6.50;57.60;;;;;;5112518;28;20027;-75
2022/03/15 03:00:44;;;;;;;22.17;13.95;;;6.50;57.40;;;;;;5111778;28;20023;-75
2022/03/15 03:03:10;;;;;;;22.25;13.57;;;6.50;57.20;;;;;;5112324;28;20535;-75
2022/03/15 03:05:36;;;;;;;28.88;14.52;;;6.50;57.00;;;;;;5114923;28;20023;-75
2022/03/15 03:08:05;;;;;;;23.15;14.05;;;6.60;57.00;;;;;;5116392;28;20514;-75
2022/03/15 03:10:32;;;;;;;24.23;14.00;;;6.60;57.00;;;;;;5115201;28;20487;-74
2022/03/15 03:12:58;;;;;;;23.40;14.10;;;6.60;57.00;;;;;;5115795;28;20494;-73
2022/03/15 03:15:23;;;;;;;23.05;13.32;;;6.60;57.20;;;;;;5115780;28;20118;-75
2022/03/15 03:17:49;;;;;;;20.10;14.45;;;6.60;57.10;;;;;;5115211;28;20114;-74
2022/03/15 03:20:24;;;;;;;21.38;13.32;;;6.60;57.10;;;;;;5115684;28;20107;-74
2022/03/15 03:22:50;;;;;;;23.42;14.50;;;6.60;57.00;;;;;;5114935;28;20525;-75
2022/03/15 03:25:17;;;;;;;22.17;14.55;;;6.50;57.00;;;;;;5115693;28;20031;-73
2022/03/15 03:27:42;;;;;;;19.90;13.98;;;6.50;57.40;;;;;;5115162;28;20106;-74
2022/03/15 03:30:09;;;;;;;24.27;14.50;;;6.50;57.20;;;;;;5115792;28;20024;-75
2022/03/15 03:32:35;;;;;;;22.92;14.02;;;6.50;57.00;;;;;;5114808;28;20112;-75
2022/03/15 03:35:04;;;;;;;19.75;13.30;;;6.50;56.80;;;;;;5115548;28;20027;-75
2022/03/15 03:37:32;;;;;;;21.92;14.13;;;6.50;56.70;;;;;;5115555;28;20119;-75
2022/03/15 03:39:58;;;;;;;19.45;13.40;;;6.50;56.80;;;;;;5115496;28;20059;-74
2022/03/15 03:42:24;;;;;;;20.88;15.10;;;6.50;56.80;;;;;;5115453;28;20059;-75
2022/03/15 03:44:50;;;;;;;25.98;14.68;;;6.40;56.40;;;;;;5114749;28;20482;-75
2022/03/15 03:47:16;;;;;;;19.77;14.55;;;6.40;56.20;;;;;;5115343;28;20096;-75
2022/03/15 03:49:42;;;;;;;24.20;14.10;;;6.40;56.20;;;;;;5114559;28;20049;-76
2022/03/15 03:52:27;;;;;;;23.65;14.20;;;6.40;56.30;;;;;;5115258;28;20472;-75
2022/03/15 03:54:52;;;;;;;18.75;13.75;;;6.40;56.30;;;;;;5114379;28;20040;-74
2022/03/15 03:57:19;;;;;;;20.77;14.25;;;6.40;56.00;;;;;;5115033;28;20050;-74
2022/03/15 03:59:45;;;;;;;24.30;15.15;;;6.30;56.20;;;;;;5114457;28;20425;-75
2022/03/15 04:02:10;;;;;;;21.17;14.45;;;6.20;56.10;;;;;;5115117;28;20051;-74
2022/03/15 04:04:36;;;;;;;25.05;14.57;;;6.20;56.50;;;;;;5113986;28;20365;-75
2022/03/15 04:07:05;;;;;;;24.90;15.40;;;6.10;56.30;;;;;;5114982;28;20114;-74
2022/03/15 04:09:30;;;;;;;23.13;15.57;;;6.10;56.60;;;;;;5113545;28;20028;-75
2022/03/15 04:11:56;;;;;;;23.20;14.57;;;6.10;56.60;;;;;;5114156;28;20103;-74
2022/03/15 04:14:22;;;;;;;24.83;14.10;;;6.10;56.30;;;;;;5114762;28;20051;-74
2022/03/15 04:16:48;;;;;;;25.17;14.60;;;6.10;56.80;;;;;;5114576;28;20039;-75
2022/03/15 04:19:13;;;;;;;24.23;15.30;;;6.10;56.70;;;;;;5115433;28;20433;-75
2022/03/15 04:21:39;;;;;;;22.38;14.45;;;6.00;56.60;;;;;;5113980;28;20015;-74
2022/03/15 04:24:05;;;;;;;22.23;15.20;;;6.00;56.70;;;;;;5115194;28;20388;-76
2022/03/15 04:26:31;;;;;;;20.52;14.50;;;6.00;56.70;;;;;;5115969;27;20046;-75
2022/03/15 04:28:57;;;;;;;25.08;15.27;;;5.90;56.80;;;;;;5116872;28;20380;-75
2022/03/15 04:31:22;;;;;;;22.63;15.15;;;6.00;56.70;;;;;;5116276;28;20030;-74
2022/03/15 04:33:49;;;;;;;24.33;15.52;;;5.90;56.60;;;;;;5114154;28;20569;-76
2022/03/15 04:36:15;;;;;;;21.40;14.57;;;5.90;56.80;;;;;;5113916;28;20414;-75
2022/03/15 04:38:40;;;;;;;22.00;15.02;;;5.90;56.70;;;;;;5113533;28;20030;-76
2022/03/15 04:41:06;;;;;;;23.40;15.55;;;5.90;57.10;;;;;;5114304;28;20024;-74
2022/03/15 04:43:33;;;;;;;24.55;15.57;;;5.90;56.90;;;;;;5114025;28;20444;-74
2022/03/15 04:45:59;;;;;;;27.92;15.93;;;5.80;56.60;;;;;;5109572;28;20387;-76
2022/03/15 04:48:26;;;;;;;27.80;16.63;;;5.80;56.80;;;;;;5113271;28;20035;-76
2022/03/15 04:50:51;;;;;;;24.45;15.50;;;5.80;56.70;;;;;;5093021;28;20032;-76
2022/03/15 04:53:18;;;;;;;28.80;15.73;;;5.70;57.20;;;;;;5101555;28;20016;-77
2022/03/15 04:55:44;;;;;;;28.58;15.90;;;5.60;57.40;;;;;;5112871;28;20043;-76
2022/03/15 04:58:10;;;;;;;25.83;16.50;;;5.60;57.50;;;;;;5113412;28;20384;-76
2022/03/15 05:00:36;;;;;;;25.95;16.05;;;5.60;57.50;;;;;;5113567;28;20028;-76
2022/03/15 05:03:01;;;;;;;24.65;15.95;;;5.60;57.20;;;;;;5112509;28;20456;-75
2022/03/15 05:05:27;;;;;;;25.02;16.45;;;5.60;57.40;;;;;;5112961;28;20023;-75
2022/03/15 05:07:53;;;;;;;25.45;16.52;;;5.50;57.40;;;;;;5112611;28;20027;-77
2022/03/15 05:13:02;;;;;;;25.58;17.02;;;5.50;57.50;;;;;;5112645;28;20544;-76
2022/03/15 05:15:28;;;;;;;24.10;16.40;;;5.50;57.50;;;;;;5113120;28;20055;-74
2022/03/15 05:17:54;;;;;;;22.88;15.68;;;5.50;57.60;;;;;;5112695;28;20028;-74
2022/03/15 05:20:20;;;;;;;21.77;16.90;;;5.50;57.60;;;;;;5113039;28;20114;-75
2022/03/15 05:22:45;;;;;;;23.58;15.55;;;5.40;57.30;;;;;;5112392;28;20047;-75
2022/03/15 05:25:13;;;;;;;23.20;15.32;;;5.40;57.40;;;;;;5113209;28;20112;-74
2022/03/15 05:27:38;;;;;;;27.65;15.38;;;5.50;56.90;;;;;;5112585;28;20043;-75
2022/03/15 05:30:05;;;;;;;22.63;15.52;;;5.50;57.10;;;;;;5112660;28;20023;-75
2022/03/15 05:32:31;;;;;;;26.55;15.70;;;5.50;56.80;;;;;;5113035;28;20031;-75
2022/03/15 05:34:56;;;;;;;27.65;16.95;;;5.50;56.40;;;;;;5112854;28;20380;-75
2022/03/15 05:37:22;;;;;;;25.00;15.80;;;5.50;56.80;;;;;;5112872;28;20080;-75
2022/03/15 05:39:48;;;;;;;23.58;15.43;;;5.40;56.80;;;;;;5112565;28;20034;-75
2022/03/15 05:42:13;;;;;;;26.10;16.30;;;5.40;57.00;;;;;;5113087;28;20042;-75
2022/03/15 05:44:40;;;;;;;23.55;16.05;;;5.40;57.00;;;;;;5111760;28;20035;-76
2022/03/15 05:47:06;;;;;;;22.73;15.32;;;5.40;56.90;;;;;;5114014;28;20027;-76
2022/03/15 05:49:32;;;;;;;25.88;16.05;;;5.40;56.50;;;;;;5114570;28;20051;-76
2022/03/15 05:51:58;;;;;;;25.17;15.35;;;5.40;56.40;;;;;;5115510;28;20030;-76
2022/03/15 05:54:23;;;;;;;21.63;15.43;;;5.40;56.80;;;;;;5125725;28;20030;-76
2022/03/15 05:56:49;;;;;;;24.02;15.65;;;5.30;56.90;;;;;;5127825;28;20047;-75
2022/03/15 05:59:16;;;;;;;23.05;14.68;;;5.30;56.90;;;;;;5123320;28;20479;-77
2022/03/15 06:01:42;;;;;;;25.17;16.02;;;5.30;57.30;;;;;;5116128;28;20035;-77
2022/03/15 06:04:09;;;;;;;20.92;14.80;;;5.40;56.90;;;;;;5116021;28;20023;-77
2022/03/15 06:06:35;;;;;;;22.40;15.70;;;5.50;56.60;;;;;;5115906;28;20034;-77
2022/03/15 06:09:00;;;;;;;24.58;14.32;;;5.50;56.40;;;;;;5097261;28;20020;-75
2022/03/15 06:11:26;;;;;;;24.63;14.95;;;5.60;56.00;;;;;;5115058;28;20031;-77
2022/03/15 06:13:52;;;;;;;22.75;14.65;;;5.70;55.70;;;;;;5112616;28;20471;-76
2022/03/15 06:16:17;;;;;;;21.17;14.40;;;5.70;55.70;;;;;;5114534;28;20032;-78
2022/03/15 06:18:43;;;;;;;24.30;15.38;;;5.70;55.20;;;;;;5115292;28;20032;-78
2022/03/15 06:21:09;;;;;;;25.85;15.73;;;5.80;55.30;;;;;;5115759;28;20028;-78
2022/03/15 06:23:35;;;;;;;24.35;15.60;;;5.90;55.00;;;;;;5113320;28;20050;-77
2022/03/15 06:26:00;;;;;;;23.45;15.60;;;5.90;54.80;;;;;;5112560;28;20028;-77
2022/03/15 06:28:26;;;;;;;30.55;15.63;;;5.90;54.50;;;;;;5113666;28;20024;-77
2022/03/15 06:30:52;;;;;;;21.17;14.70;;;6.00;54.50;;;;;;5112403;28;20027;-78
2022/03/15 06:33:18;;;;;;;20.67;15.02;;;6.00;54.50;;;;;;5113602;28;20059;-77
2022/03/15 06:35:46;;;;;;;22.15;15.25;;;6.10;54.50;;;;;;5112364;28;20513;-78
2022/03/15 06:38:11;;;;;;;25.17;14.63;;;6.10;54.50;;;;;;5112676;28;20388;-77
2022/03/15 06:40:40;;;;;;;28.23;15.73;;;6.10;54.80;;;;;;5118676;28;20020;-78
2022/03/15 06:43:06;;;;;;;22.60;15.10;;;6.20;53.90;;;;;;5116035;28;20027;-77
2022/03/15 06:45:32;;;;;;;22.65;14.60;;;6.20;54.00;;;;;;5116520;28;20053;-77
2022/03/15 06:47:58;;;;;;;20.52;15.15;;;6.20;54.50;;;;;;5116146;28;20030;-77
2022/03/15 06:50:24;;;;;;;24.50;14.82;;;6.20;54.20;;;;;;5116411;28;20019;-78
2022/03/15 06:52:49;;;;;;;22.77;14.85;;;6.30;53.90;;;;;;5115604;28;20020;-77
2022/03/15 06:55:16;;;;;;;21.23;15.05;;;6.30;53.90;;;;;;5116689;28;20058;-77
2022/03/15 06:57:43;;;;;;;21.73;15.05;;;6.30;53.60;;;;;;5116499;28;20111;-78
2022/03/15 07:00:12;;;;;;;21.75;14.80;;;6.40;53.90;;;;;;5115852;28;20084;-78
2022/03/15 07:02:37;;;;;;;23.75;15.70;;;6.40;54.10;;;;;;5116177;28;20039;-79
2022/03/15 07:05:03;;;;;;;22.88;13.93;;;6.40;53.20;;;;;;5115878;28;20031;-79
2022/03/15 07:07:29;;;;;;;26.23;14.73;;;6.50;54.10;;;;;;5116146;28;20031;-78
2022/03/15 07:09:55;;;;;;;22.23;15.40;;;6.50;53.70;;;;;;5115451;28;20087;-79
2022/03/15 07:12:22;;;;;;;21.58;14.77;;;6.60;53.40;;;;;;5115624;28;20491;-79
2022/03/15 07:14:49;;;;;;;27.77;15.82;;;6.60;53.70;;;;;;5115426;28;20072;-79
2022/03/15 07:17:15;;;;;;;22.48;14.32;;;6.70;53.60;;;;;;5115913;28;20031;-79
2022/03/15 07:19:41;;;;;;;23.63;14.77;;;6.70;53.60;;;;;;5116102;28;20024;-80
2022/03/15 07:22:07;;;;;;;25.23;14.98;;;6.70;53.40;;;;;;5115102;28;20443;-80
2022/03/15 07:24:33;;;;;;;25.65;14.57;;;6.60;53.60;;;;;;5115932;28;20116;-79
2022/03/15 07:27:00;;;;;;;25.05;15.40;;;6.70;54.20;;;;;;5115262;28;20106;-80
2022/03/15 07:29:25;;;;;;;22.23;14.73;;;6.80;54.00;;;;;;5115241;28;20036;-79
2022/03/15 07:31:51;;;;;;;22.67;14.90;;;6.90;52.90;;;;;;5115340;28;20081;-79
2022/03/15 07:34:16;;;;;;;28.90;15.85;;;7.00;53.30;;;;;;5115513;28;20020;-80
2022/03/15 07:36:42;;;;;;;24.52;14.73;;;7.10;52.90;;;;;;5115873;28;20028;-80
2022/03/15 07:39:08;;;;;;;25.45;14.75;;;7.30;53.00;;;;;;5115030;28;20040;-80
2022/03/15 07:41:38;;;;;;;25.95;15.43;;;7.40;52.40;;;;;;5115435;28;20080;-80
2022/03/15 07:44:05;;;;;;;23.05;14.27;;;7.40;52.00;;;;;;5115565;28;20044;-80
2022/03/15 07:46:31;;;;;;;23.20;14.40;;;7.60;52.70;;;;;;5119688;28;20028;-80
2022/03/15 07:48:57;;;;;;;26.48;15.88;;;7.80;52.50;;;;;;5119853;28;20020;-81
2022/03/15 07:51:41;;;;;;;23.63;14.57;;;7.80;52.40;;;;;;5109436;28;20048;-80
2022/03/15 07:54:07;;;;;;;27.33;15.18;;;8.00;51.50;;;;;;5100535;28;20159;-80
2022/03/15 07:56:33;;;;;;;24.33;14.20;;;8.10;51.20;;;;;;5101264;28;20080;-80
2022/03/15 07:58:58;;;;;;;24.17;14.60;;;8.20;50.40;;;;;;5101333;28;20028;-80
2022/03/15 08:01:24;;;;;;;25.55;15.00;;;8.30;50.90;;;;;;5101975;28;20028;-80
2022/03/15 08:03:50;;;;;;;27.17;15.27;;;8.40;50.30;;;;;;5101433;28;20032;-81
2022/03/15 08:06:15;;;;;;;21.15;14.98;;;8.60;50.60;;;;;;5103939;28;20031;-79
2022/03/15 08:08:42;;;;;;;19.55;13.88;;;9.00;50.10;;;;;;5104910;28;20507;-80
2022/03/15 08:11:08;;;;;;;20.85;14.63;;;9.20;48.80;;;;;;5110489;28;20037;-80
2022/03/15 08:13:36;;;;;;;22.45;13.85;;;9.50;48.80;;;;;;5111837;28;20079;-79
2022/03/15 08:16:04;;;;;;;25.67;14.05;;;9.70;48.00;;;;;;5112314;28;20092;-79
2022/03/15 08:18:30;;;;;;;22.50;14.38;;;9.80;47.60;;;;;;5108231;28;20040;-79
2022/03/15 08:20:57;;;;;;;23.30;14.95;;;9.90;47.40;;;;;;5103145;28;20388;-80
2022/03/15 08:23:23;;;;;;;34.20;14.35;;;10.10;47.20;;;;;;5104202;28;20032;-79
2022/03/15 08:25:49;;;;;;;24.67;13.82;;;10.20;46.70;;;;;;5103835;28;20043;-79
2022/03/15 08:28:14;;;;;;;24.08;14.75;;;10.30;46.80;;;;;;5104224;28;20024;-82
2022/03/15 08:30:40;;;;;;;23.15;13.73;;;10.30;46.30;;;;;;5105508;28;20028;-81
2022/03/15 08:33:05;;;;;;;24.05;14.57;;;10.30;46.20;;;;;;5105464;28;20028;-80
2022/03/15 08:35:31;;;;;;;30.00;14.25;;;10.40;46.20;;;;;;5107547;28;20024;-80
2022/03/15 08:37:57;;;;;;;24.33;14.15;;;10.50;45.80;;;;;;5107025;28;20046;-79
2022/03/15 08:40:23;;;;;;;22.67;13.63;;;10.50;45.60;;;;;;5112058;28;20084;-81
2022/03/15 08:42:49;;;;;;;24.27;13.65;;;10.50;45.70;;;;;;5112540;28;20016;-81
2022/03/15 08:45:15;;;;;;;22.65;13.63;;;10.60;45.50;;;;;;5106131;28;20031;-80
2022/03/15 08:47:41;;;;;;;26.95;14.23;;;10.60;45.60;;;;;;5107095;28;20028;-80
2022/03/15 08:50:09;;;;;;;20.95;14.05;;;10.60;45.90;;;;;;5106380;28;20064;-81
2022/03/15 08:52:35;;;;;;;25.48;13.45;;;10.60;46.00;;;;;;5109640;28;20077;-80
2022/03/15 08:55:02;;;;;;;22.38;13.32;;;10.80;46.40;;;;;;5110201;28;20070;-81
2022/03/15 08:57:28;;;;;;;18.88;13.15;;;10.80;45.90;;;;;;5113073;28;20089;-80
2022/03/15 08:59:54;;;;;;;21.70;14.32;;;10.90;45.70;;;;;;5111420;28;20054;-79
2022/03/15 09:02:20;;;;;;;23.75;13.82;;;11.00;45.60;;;;;;5108558;28;20079;-81
2022/03/15 09:04:46;;;;;;;18.65;13.35;;;11.20;45.70;;;;;;5108964;28;20145;-80
2022/03/15 09:07:12;;;;;;;26.13;12.75;;;11.20;45.00;;;;;;5108886;28;20028;-80
2022/03/15 09:09:38;;;;;;;18.50;13.35;;;11.30;45.10;;;;;;5111349;28;20028;-82
2022/03/15 09:12:05;;;;;;;21.20;12.90;;;11.40;44.70;;;;;;5126109;28;20020;-83
2022/03/15 09:14:31;;;;;;;22.77;13.35;;;11.50;45.00;;;;;;5121920;28;20084;-80
2022/03/15 09:16:57;;;;;;;22.25;12.98;;;11.60;45.20;;;;;;5130339;28;20036;-82
2022/03/15 09:19:23;;;;;;;22.33;13.18;;;11.70;45.30;;;;;;5132321;28;20028;-83
2022/03/15 09:21:49;;;;;;;19.17;12.43;;;11.90;45.40;;;;;;5132852;28;20028;-81
2022/03/15 09:24:15;;;;;;;19.73;13.38;;;12.00;45.10;;;;;;5122999;28;20080;-82
2022/03/15 09:26:41;;;;;;;20.70;13.18;;;12.10;45.30;;;;;;5113791;28;20028;-81
2022/03/15 09:29:08;;;;;;;17.20;12.23;;;12.20;45.40;;;;;;5113523;28;20239;-82
2022/03/15 09:31:35;;;;;;;23.52;13.10;;;12.30;45.40;;;;;;5113751;28;20043;-82
2022/03/15 09:34:01;;;;;;;19.73;12.15;;;12.30;45.20;;;;;;5113376;28;20062;-81
2022/03/15 09:36:27;;;;;;;17.55;12.25;;;12.40;45.10;;;;;;5113775;28;20042;-82
2022/03/15 09:38:54;;;;;;;23.10;12.70;;;12.40;44.80;;;;;;5113898;28;20384;-82
2022/03/15 09:41:21;;;;;;;17.27;12.32;;;12.50;45.30;;;;;;5113816;28;20035;-82
2022/03/15 09:43:49;;;;;;;13.18;11.48;;;12.50;44.70;;;;;;5113359;28;20110;-82
2022/03/15 09:46:17;;;;;;;18.70;12.30;;;12.60;45.00;;;;;;5112861;28;20035;-81
2022/03/15 09:48:44;;;;;;;24.17;12.25;;;12.60;45.00;;;;;;5113450;28;20028;-83
2022/03/15 09:51:16;;;;;;;16.50;11.15;;;12.70;45.00;;;;;;5113397;28;20026;-83
2022/03/15 09:53:43;;;;;;;17.63;10.57;;;12.80;44.70;;;;;;5113197;28;20027;-81
2022/03/15 09:56:09;;;;;;;17.90;11.40;;;13.00;44.60;;;;;;5113253;28;20079;-83
2022/03/15 09:58:35;;;;;;;21.35;11.15;;;13.10;44.20;;;;;;5113812;28;20454;-83
2022/03/15 10:01:01;;;;;;;15.52;10.40;;;13.20;43.60;;;;;;5113305;28;20019;-81
2022/03/15 10:03:27;;;;;;;17.67;11.18;;;13.30;43.60;;;;;;5113793;28;20026;-81
2022/03/15 10:05:54;;;;;;;19.88;12.45;;;13.40;43.40;;;;;;5113645;28;20474;-81
2022/03/15 10:08:20;;;;;;;16.30;11.90;;;13.50;43.50;;;;;;5113134;28;20035;-81
2022/03/15 10:10:51;;;;;;;22.00;11.73;;;13.60;43.30;;;;;;5113643;28;20520;-82
2022/03/15 10:13:17;;;;;;;18.70;12.30;;;13.70;43.10;;;;;;5114802;28;20072;-82
2022/03/15 10:16:12;;;;;;;24.05;13.05;;;13.80;43.10;;;;;;5124030;27;20024;-82
2022/03/15 10:18:37;;;;;;;19.20;12.23;;;13.90;42.90;;;;;;5128959;27;20051;-82
2022/03/15 10:21:06;;;;;;;17.15;11.82;;;14.00;42.80;;;;;;5128880;28;20035;-80
2022/03/15 10:23:38;;;;;;;16.40;11.48;;;14.10;42.70;;;;;;5140036;28;20031;-82
2022/03/15 10:26:04;;;;;;;15.43;11.68;;;14.20;42.20;;;;;;5139253;28;20027;-81
2022/03/15 10:28:31;;;;;;;14.85;10.77;;;14.30;42.20;;;;;;5139799;28;20063;-82
2022/03/15 10:30:58;;;;;;;14.93;11.07;;;14.40;41.10;;;;;;5139932;28;20003;-82
2022/03/15 10:33:26;;;;;;;14.38;10.98;;;14.50;41.40;;;;;;5138626;28;20007;-82
2022/03/15 10:35:53;;;;;;;15.52;10.45;;;14.60;41.10;;;;;;5138029;28;20023;-83
2022/03/15 10:38:19;;;;;;;18.50;9.93;;;14.70;40.70;;;;;;5135810;28;20353;-81
2022/03/15 10:40:48;;;;;;;15.00;10.50;;;14.80;40.60;;;;;;5136689;28;20058;-83
2022/03/15 10:43:24;;;;;;;14.93;10.40;;;14.80;40.50;;;;;;5136571;28;20012;-82
2022/03/15 10:45:57;;;;;;;16.33;10.05;;;14.80;40.50;;;;;;5133389;28;20026;-83
2022/03/15 10:48:30;;;;;;;15.63;9.13;;;14.80;40.40;;;;;;5135492;28;20047;-81
2022/03/15 10:51:02;;;;;;;11.40;8.75;;;14.80;40.40;;;;;;5135586;28;20020;-82
2022/03/15 10:53:44;;;;;;;12.30;8.55;;;14.90;40.20;;;;;;5135283;28;20042;-81
2022/03/15 10:56:23;;;;;;;16.25;9.77;;;14.90;40.10;;;;;;5134876;28;20075;-81
2022/03/15 10:58:51;;;;;;;13.07;8.55;;;14.90;39.70;;;;;;5133322;28;20023;-81
2022/03/15 11:01:24;;;;;;;15.10;8.65;;;14.90;39.90;;;;;;5133446;28;20108;-81
2022/03/15 11:04:03;;;;;;;13.07;9.15;;;14.90;40.30;;;;;;5134979;28;20027;-80
2022/03/15 11:06:35;;;;;;;16.75;9.20;;;14.90;40.40;;;;;;5133280;28;20028;-80
2022/03/15 11:09:13;;;;;;;15.48;8.30;;;14.90;40.50;;;;;;5132518;28;20046;-80
2022/03/15 11:11:40;;;;;;;13.27;8.32;;;14.80;40.70;;;;;;5132312;28;20027;-81
2022/03/15 11:14:06;;;;;;;12.57;8.63;;;14.80;40.60;;;;;;5130562;28;20032;-80
2022/03/15 11:16:38;;;;;;;13.32;8.88;;;14.70;40.50;;;;;;5130659;28;20040;-81
2022/03/15 11:19:05;;;;;;;15.68;10.43;;;14.60;40.90;;;;;;5133279;28;20055;-78
2022/03/15 11:21:34;;;;;;;12.52;10.18;;;14.60;41.20;;;;;;5135170;28;20087;-80
2022/03/15 11:24:02;;;;;;;15.23;10.43;;;14.50;41.50;;;;;;5135861;28;20047;-79
2022/03/15 11:26:33;;;;;;;18.02;10.82;;;14.40;41.70;;;;;;5138110;28;20027;-80
2022/03/15 11:29:02;;;;;;;11.82;9.00;;;14.40;42.10;;;;;;5140005;28;20032;-80
2022/03/15 11:31:32;;;;;;;13.63;9.00;;;14.30;41.90;;;;;;5138375;28;20027;-81
2022/03/15 11:34:00;;;;;;;14.30;8.77;;;14.30;41.80;;;;;;5135920;28;20049;-81
2022/03/15 11:36:26;;;;;;;11.27;8.38;;;14.40;42.00;;;;;;5134953;28;20038;-79
2022/03/15 11:38:53;;;;;;;14.85;9.32;;;14.30;41.70;;;;;;5132276;28;20023;-81
2022/03/15 11:41:21;;;;;;;15.38;8.38;;;14.40;41.80;;;;;;5129719;28;20034;-81
2022/03/15 11:44:13;;;;;;;16.27;8.60;;;14.30;42.00;;;;;;5126336;28;20415;-80
2022/03/15 11:46:50;;;;;;;16.88;8.48;;;14.30;42.20;;;;;;5123517;28;20556;-81
2022/03/15 11:49:27;;;;;;;12.32;9.05;;;14.20;42.30;;;;;;5121655;28;20028;-80
2022/03/15 11:52:11;;;;;;;14.82;8.48;;;14.20;42.50;;;;;;5121984;28;20024;-80
2022/03/15 11:54:59;;;;;;;13.05;8.88;;;14.20;42.60;;;;;;5120918;28;20027;-80
2022/03/15 11:57:49;;;;;;;14.40;8.30;;;14.20;42.70;;;;;;5119053;28;20040;-79
2022/03/15 12:00:36;;;;;;;13.05;8.60;;;14.20;42.90;;;;;;5119333;28;20052;-78
2022/03/15 12:03:06;;;;;;;11.45;8.45;;;14.20;43.20;;;;;;5118823;28;20169;-79
2022/03/15 12:05:45;;;;;;;12.95;8.18;;;14.20;43.30;;;;;;5117788;28;20031;-79
2022/03/15 12:08:16;;;;;;;11.57;7.70;;;14.20;43.40;;;;;;5116998;28;20353;-80
2022/03/15 12:10:57;;;;;;;11.70;7.45;;;14.40;43.30;;;;;;5116258;28;20020;-80
2022/03/15 12:13:57;;;;;;;11.73;7.53;;;14.50;42.60;;;;;;5114547;28;20033;-79
2022/03/15 12:19:35;;;;;;;14.55;6.88;;;14.70;42.30;;;;;;5113603;28;20034;-79
2022/03/15 12:22:06;;;;;;;10.85;5.80;;;14.90;42.30;;;;;;5114743;28;20114;-79
2022/03/15 12:24:40;;;;;;;11.93;6.25;;;14.90;42.10;;;;;;5114363;28;20032;-79
2022/03/15 12:27:08;;;;;;;10.25;6.00;;;15.00;42.20;;;;;;5114433;28;20038;-79
2022/03/15 12:29:36;;;;;;;9.90;5.95;;;15.10;42.10;;;;;;5114081;28;20032;-80
2022/03/15 12:32:18;;;;;;;13.13;6.50;;;15.00;41.70;;;;;;5112824;28;20024;-79
2022/03/15 12:34:46;;;;;;;11.40;5.65;;;14.90;41.80;;;;;;5114637;28;20441;-80
2022/03/15 12:37:12;;;;;;;13.85;6.60;;;14.90;42.10;;;;;;5113395;28;20059;-80
2022/03/15 12:39:38;;;;;;;12.05;6.25;;;14.80;42.10;;;;;;5114170;28;20023;-79
2022/03/15 12:42:14;;;;;;;10.40;6.15;;;14.70;42.30;;;;;;5114618;28;20030;-80